sensor_id;sensor_type;location;lat;lon;timestamp;pressure;altitude;pressure_sealevel;temperature;humidity
4024;BME280;2026;51.002;13.668;2023-03-18T00:04:36;98594.81;;;7.33;47.84
4024;BME280;2026;51.002;13.668;2023-03-18T00:09:40;98596.56;;;7.06;49.62
4024;BME280;2026;51.002;13.668;2023-03-18T00:14:43;98608.56;;;7.00;50.67
4024;BME280;2026;51.002;13.668;2023-03-18T00:19:47;98610.72;;;6.62;53.29
4024;BME280;2026;51.002;13.668;2023-03-18T00:24:52;98603.13;;;6.61;52.60
4024;BME280;2026;51.002;13.668;2023-03-18T00:29:55;98610.38;;;6.79;49.81
4024;BME280;2026;51.002;13.668;2023-03-18T00:34:59;98603.75;;;6.83;50.12
4024;BME280;2026;51.002;13.668;2023-03-18T00:40:07;98602.38;;;6.87;49.51
4024;BME280;2026;51.002;13.668;2023-03-18T00:45:11;98591.53;;;6.84;49.88
4024;BME280;2026;51.002;13.668;2023-03-18T00:50:15;98594.94;;;6.84;49.91
4024;BME280;2026;51.002;13.668;2023-03-18T00:55:20;98594.34;;;6.96;48.68
4024;BME280;2026;51.002;13.668;2023-03-18T01:00:24;98586.31;;;6.90;49.69
4024;BME280;2026;51.002;13.668;2023-03-18T01:05:27;98582.72;;;6.85;48.60
4024;BME280;2026;51.002;13.668;2023-03-18T01:10:32;98578.91;;;7.01;49.11
4024;BME280;2026;51.002;13.668;2023-03-18T01:15:36;98581.50;;;6.74;53.14
4024;BME280;2026;51.002;13.668;2023-03-18T01:20:39;98578.56;;;6.35;53.53
4024;BME280;2026;51.002;13.668;2023-03-18T01:25:43;98578.22;;;6.38;54.89
4024;BME280;2026;51.002;13.668;2023-03-18T01:30:52;98572.22;;;6.58;52.68
4024;BME280;2026;51.002;13.668;2023-03-18T01:35:57;98572.84;;;6.60;51.98
4024;BME280;2026;51.002;13.668;2023-03-18T01:41:05;98568.66;;;6.59;52.96
4024;BME280;2026;51.002;13.668;2023-03-18T01:46:38;98566.63;;;6.54;51.80
4024;BME280;2026;51.002;13.668;2023-03-18T01:51:45;98565.19;;;6.45;54.78
4024;BME280;2026;51.002;13.668;2023-03-18T01:56:52;98571.22;;;6.52;52.47
4024;BME280;2026;51.002;13.668;2023-03-18T02:02:01;98570.63;;;6.50;53.17
4024;BME280;2026;51.002;13.668;2023-03-18T02:07:13;98577.84;;;6.48;53.42
4024;BME280;2026;51.002;13.668;2023-03-18T02:12:21;98573.41;;;6.48;53.41
4024;BME280;2026;51.002;13.668;2023-03-18T02:17:32;98574.00;;;6.51;52.49
4024;BME280;2026;51.002;13.668;2023-03-18T02:22:40;98585.25;;;6.44;52.96
4024;BME280;2026;51.002;13.668;2023-03-18T02:27:48;98592.06;;;6.52;51.80
4024;BME280;2026;51.002;13.668;2023-03-18T02:32:53;98591.47;;;6.50;52.89
4024;BME280;2026;51.002;13.668;2023-03-18T02:37:59;98593.25;;;6.49;53.13
4024;BME280;2026;51.002;13.668;2023-03-18T02:43:17;98589.47;;;6.52;51.96
4024;BME280;2026;51.002;13.668;2023-03-18T02:48:28;98602.25;;;6.40;52.30
4024;BME280;2026;51.002;13.668;2023-03-18T02:53:34;98615.13;;;6.06;54.47
4024;BME280;2026;51.002;13.668;2023-03-18T02:58:39;98617.34;;;6.10;54.74
4024;BME280;2026;51.002;13.668;2023-03-18T03:03:43;98622.13;;;6.06;53.72
4024;BME280;2026;51.002;13.668;2023-03-18T03:08:47;98633.22;;;6.21;53.67
4024;BME280;2026;51.002;13.668;2023-03-18T03:13:51;98633.59;;;6.18;54.17
4024;BME280;2026;51.002;13.668;2023-03-18T03:18:55;98627.44;;;6.26;52.72
4024;BME280;2026;51.002;13.668;2023-03-18T03:23:58;98632.47;;;6.34;53.26
4024;BME280;2026;51.002;13.668;2023-03-18T03:29:03;98630.41;;;6.23;53.41
4024;BME280;2026;51.002;13.668;2023-03-18T03:34:08;98637.63;;;6.21;54.81
4024;BME280;2026;51.002;13.668;2023-03-18T03:39:11;98631.63;;;6.20;52.88
4024;BME280;2026;51.002;13.668;2023-03-18T03:44:15;98645.47;;;6.28;52.03
4024;BME280;2026;51.002;13.668;2023-03-18T03:49:22;98653.03;;;6.16;53.23
4024;BME280;2026;51.002;13.668;2023-03-18T03:54:25;98656.16;;;6.04;55.19
4024;BME280;2026;51.002;13.668;2023-03-18T03:59:30;98656.16;;;6.04;55.24
4024;BME280;2026;51.002;13.668;2023-03-18T04:04:46;98660.28;;;6.27;52.41
4024;BME280;2026;51.002;13.668;2023-03-18T04:10:00;98676.22;;;6.11;54.31
4024;BME280;2026;51.002;13.668;2023-03-18T04:15:07;98686.69;;;5.89;57.01
4024;BME280;2026;51.002;13.668;2023-03-18T04:20:12;98681.19;;;5.77;55.76
4024;BME280;2026;51.002;13.668;2023-03-18T04:25:15;98683.31;;;5.95;54.78
4024;BME280;2026;51.002;13.668;2023-03-18T04:30:22;98687.88;;;5.86;54.40
4024;BME280;2026;51.002;13.668;2023-03-18T04:35:36;98682.75;;;5.71;56.33
4024;BME280;2026;51.002;13.668;2023-03-18T04:40:39;98692.06;;;5.59;57.12
4024;BME280;2026;51.002;13.668;2023-03-18T04:45:44;98695.94;;;5.70;55.24
4024;BME280;2026;51.002;13.668;2023-03-18T04:50:49;98695.63;;;5.79;54.39
4024;BME280;2026;51.002;13.668;2023-03-18T04:55:57;98697.75;;;5.69;54.64
4024;BME280;2026;51.002;13.668;2023-03-18T05:01:09;98693.25;;;5.56;56.11
4024;BME280;2026;51.002;13.668;2023-03-18T05:06:20;98691.84;;;5.53;55.42
4024;BME280;2026;51.002;13.668;2023-03-18T05:11:38;98686.63;;;5.53;55.52
4024;BME280;2026;51.002;13.668;2023-03-18T05:16:49;98692.13;;;5.65;54.00
4024;BME280;2026;51.002;13.668;2023-03-18T05:21:52;98702.97;;;5.25;58.67
4024;BME280;2026;51.002;13.668;2023-03-18T05:26:56;98704.50;;;4.98;60.04
4024;BME280;2026;51.002;13.668;2023-03-18T05:32:08;98690.03;;;5.32;56.15
4024;BME280;2026;51.002;13.668;2023-03-18T05:37:13;98704.19;;;5.51;54.82
4024;BME280;2026;51.002;13.668;2023-03-18T05:42:22;98708.28;;;5.61;54.93
4024;BME280;2026;51.002;13.668;2023-03-18T05:47:27;98706.59;;;5.46;55.76
4024;BME280;2026;51.002;13.668;2023-03-18T05:52:36;98709.94;;;5.69;54.75
4024;BME280;2026;51.002;13.668;2023-03-18T05:57:45;98715.31;;;5.89;53.95
4024;BME280;2026;51.002;13.668;2023-03-18T06:02:51;98713.84;;;5.79;54.55
4024;BME280;2026;51.002;13.668;2023-03-18T06:07:55;98714.41;;;6.03;53.52
4024;BME280;2026;51.002;13.668;2023-03-18T06:12:58;98722.66;;;6.07;53.35
4024;BME280;2026;51.002;13.668;2023-03-18T06:18:03;98724.91;;;6.17;53.29
4024;BME280;2026;51.002;13.668;2023-03-18T06:23:06;98736.97;;;6.25;53.09
4024;BME280;2026;51.002;13.668;2023-03-18T06:28:10;98728.50;;;6.51;52.49
4024;BME280;2026;51.002;13.668;2023-03-18T06:33:15;98723.66;;;6.97;52.69
4024;BME280;2026;51.002;13.668;2023-03-18T06:38:19;98724.78;;;7.43;50.96
4024;BME280;2026;51.002;13.668;2023-03-18T06:43:23;98730.03;;;7.50;52.61
4024;BME280;2026;51.002;13.668;2023-03-18T06:48:29;98727.22;;;7.58;53.33
4024;BME280;2026;51.002;13.668;2023-03-18T06:53:35;98735.25;;;7.83;53.12
4024;BME280;2026;51.002;13.668;2023-03-18T06:58:39;98726.00;;;8.08;52.46
4024;BME280;2026;51.002;13.668;2023-03-18T07:03:44;98739.59;;;8.44;50.96
4024;BME280;2026;51.002;13.668;2023-03-18T07:08:48;98732.31;;;8.66;49.46
4024;BME280;2026;51.002;13.668;2023-03-18T07:13:51;98739.47;;;8.77;48.77
4024;BME280;2026;51.002;13.668;2023-03-18T07:19:03;98747.97;;;9.44;49.91
4024;BME280;2026;51.002;13.668;2023-03-18T07:24:06;98733.97;;;10.14;46.36
4024;BME280;2026;51.002;13.668;2023-03-18T07:29:09;98727.34;;;10.49;45.72
4024;BME280;2026;51.002;13.668;2023-03-18T07:34:14;98729.44;;;11.39;43.87
4024;BME280;2026;51.002;13.668;2023-03-18T07:39:18;98721.75;;;11.68;44.11
4024;BME280;2026;51.002;13.668;2023-03-18T07:44:22;98710.81;;;11.71;43.73
4024;BME280;2026;51.002;13.668;2023-03-18T07:49:27;98730.19;;;11.15;45.50
4024;BME280;2026;51.002;13.668;2023-03-18T07:54:30;98721.81;;;11.37;46.73
4024;BME280;2026;51.002;13.668;2023-03-18T07:59:33;98722.44;;;11.21;46.33
4024;BME280;2026;51.002;13.668;2023-03-18T08:04:38;98726.22;;;11.79;46.27
4024;BME280;2026;51.002;13.668;2023-03-18T08:09:41;98727.28;;;12.02;45.76
4024;BME280;2026;51.002;13.668;2023-03-18T08:14:44;98719.59;;;12.13;44.89
4024;BME280;2026;51.002;13.668;2023-03-18T08:19:50;98730.84;;;12.61;45.62
4024;BME280;2026;51.002;13.668;2023-03-18T08:24:53;98729.31;;;12.77;44.39
4024;BME280;2026;51.002;13.668;2023-03-18T08:29:58;98734.72;;;12.99;43.97
4024;BME280;2026;51.002;13.668;2023-03-18T08:35:06;98737.00;;;12.66;45.00
4024;BME280;2026;51.002;13.668;2023-03-18T08:40:11;98749.19;;;12.85;44.66
4024;BME280;2026;51.002;13.668;2023-03-18T08:45:14;98752.84;;;12.43;45.76
4024;BME280;2026;51.002;13.668;2023-03-18T08:50:19;98761.09;;;12.75;45.98
4024;BME280;2026;51.002;13.668;2023-03-18T08:55:27;98766.47;;;13.22;43.91
4024;BME280;2026;51.002;13.668;2023-03-18T09:00:32;98755.94;;;13.51;44.12
4024;BME280;2026;51.002;13.668;2023-03-18T09:05:36;98751.88;;;14.16;43.31
4024;BME280;2026;51.002;13.668;2023-03-18T09:10:40;98755.34;;;14.56;42.30
4024;BME280;2026;51.002;13.668;2023-03-18T09:15:46;98743.66;;;14.97;41.47
4024;BME280;2026;51.002;13.668;2023-03-18T09:20:50;98744.16;;;14.94;42.41
4024;BME280;2026;51.002;13.668;2023-03-18T09:25:54;98751.13;;;15.05;42.67
4024;BME280;2026;51.002;13.668;2023-03-18T09:30:57;98751.25;;;15.16;42.65
4024;BME280;2026;51.002;13.668;2023-03-18T09:36:02;98749.75;;;15.25;42.33
4024;BME280;2026;51.002;13.668;2023-03-18T09:41:15;98749.47;;;16.25;40.87
4024;BME280;2026;51.002;13.668;2023-03-18T09:46:28;98739.03;;;16.56;39.80
4024;BME280;2026;51.002;13.668;2023-03-18T09:51:49;98742.31;;;16.25;40.39
4024;BME280;2026;51.002;13.668;2023-03-18T09:56:55;98743.19;;;17.21;40.33
4024;BME280;2026;51.002;13.668;2023-03-18T10:01:58;98733.66;;;17.25;39.42
4024;BME280;2026;51.002;13.668;2023-03-18T10:07:06;98740.66;;;15.76;42.61
4024;BME280;2026;51.002;13.668;2023-03-18T10:12:17;98735.81;;;15.67;43.92
4024;BME280;2026;51.002;13.668;2023-03-18T10:17:24;98748.03;;;15.41;41.10
4024;BME280;2026;51.002;13.668;2023-03-18T10:22:51;98742.00;;;15.73;41.21
4024;BME280;2026;51.002;13.668;2023-03-18T10:28:07;98749.09;;;15.40;42.17
4024;BME280;2026;51.002;13.668;2023-03-18T10:33:21;98752.97;;;15.65;41.51
4024;BME280;2026;51.002;13.668;2023-03-18T10:38:33;98755.38;;;15.66;41.75
4024;BME280;2026;51.002;13.668;2023-03-18T10:43:38;98760.72;;;15.72;40.31
4024;BME280;2026;51.002;13.668;2023-03-18T10:48:44;98761.41;;;15.89;41.20
4024;BME280;2026;51.002;13.668;2023-03-18T10:53:55;98763.38;;;16.10;41.23
4024;BME280;2026;51.002;13.668;2023-03-18T10:58:59;98758.97;;;15.83;41.16
4024;BME280;2026;51.002;13.668;2023-03-18T11:04:04;98755.91;;;15.63;41.02
4024;BME280;2026;51.002;13.668;2023-03-18T11:09:11;98767.25;;;15.64;41.44
4024;BME280;2026;51.002;13.668;2023-03-18T11:14:17;98777.97;;;15.47;41.67
4024;BME280;2026;51.002;13.668;2023-03-18T11:19:26;98769.13;;;15.68;41.84
4024;BME280;2026;51.002;13.668;2023-03-18T11:24:31;98771.34;;;15.49;42.61
4024;BME280;2026;51.002;13.668;2023-03-18T11:29:42;98769.09;;;15.96;42.24
4024;BME280;2026;51.002;13.668;2023-03-18T11:34:53;98772.88;;;16.05;40.64
4024;BME280;2026;51.002;13.668;2023-03-18T11:40:15;98774.50;;;15.74;41.76
4024;BME280;2026;51.002;13.668;2023-03-18T11:45:33;98768.56;;;15.94;42.49
4024;BME280;2026;51.002;13.668;2023-03-18T11:50:41;98771.78;;;16.01;42.56
4024;BME280;2026;51.002;13.668;2023-03-18T11:55:52;98772.59;;;16.02;41.99
4024;BME280;2026;51.002;13.668;2023-03-18T12:01:05;98756.81;;;16.17;42.86
4024;BME280;2026;51.002;13.668;2023-03-18T12:06:16;98770.53;;;16.14;41.99
4024;BME280;2026;51.002;13.668;2023-03-18T12:11:33;98768.75;;;15.82;43.06
4024;BME280;2026;51.002;13.668;2023-03-18T12:16:50;98769.00;;;16.24;43.61
4024;BME280;2026;51.002;13.668;2023-03-18T12:22:05;98761.41;;;16.32;43.58
4024;BME280;2026;51.002;13.668;2023-03-18T12:27:18;98754.63;;;16.04;43.62
4024;BME280;2026;51.002;13.668;2023-03-18T12:32:30;98759.75;;;16.21;42.94
4024;BME280;2026;51.002;13.668;2023-03-18T12:37:47;98758.56;;;15.68;44.05
4024;BME280;2026;51.002;13.668;2023-03-18T12:43:03;98759.63;;;16.00;42.40
4024;BME280;2026;51.002;13.668;2023-03-18T12:48:14;98758.69;;;15.79;43.25
4024;BME280;2026;51.002;13.668;2023-03-18T12:53:24;98759.03;;;15.93;44.36
4024;BME280;2026;51.002;13.668;2023-03-18T12:58:36;98756.81;;;16.17;43.10
4024;BME280;2026;51.002;13.668;2023-03-18T13:03:42;98764.25;;;15.83;44.35
4024;BME280;2026;51.002;13.668;2023-03-18T13:09:00;98751.81;;;15.83;44.42
4024;BME280;2026;51.002;13.668;2023-03-18T13:14:08;98754.53;;;15.88;43.86
4024;BME280;2026;51.002;13.668;2023-03-18T13:19:15;98752.75;;;15.99;43.40
4024;BME280;2026;51.002;13.668;2023-03-18T13:24:45;98751.28;;;15.81;43.38
4024;BME280;2026;51.002;13.668;2023-03-18T13:30:00;98738.69;;;15.93;43.62
4024;BME280;2026;51.002;13.668;2023-03-18T13:40:50;98736.81;;;15.89;44.14
4024;BME280;2026;51.002;13.668;2023-03-18T13:45:59;98735.72;;;15.85;44.48
4024;BME280;2026;51.002;13.668;2023-03-18T13:51:18;98727.38;;;16.03;43.56
4024;BME280;2026;51.002;13.668;2023-03-18T13:56:30;98723.63;;;16.42;43.54
4024;BME280;2026;51.002;13.668;2023-03-18T14:01:47;98719.84;;;16.28;43.17
4024;BME280;2026;51.002;13.668;2023-03-18T14:06:54;98717.50;;;16.42;43.35
4024;BME280;2026;51.002;13.668;2023-03-18T14:12:03;98716.25;;;16.49;43.07
4024;BME280;2026;51.002;13.668;2023-03-18T14:17:22;98721.75;;;16.38;42.15
4024;BME280;2026;51.002;13.668;2023-03-18T14:22:32;98722.25;;;16.34;42.73
4024;BME280;2026;51.002;13.668;2023-03-18T14:27:44;98708.81;;;16.52;43.68
4024;BME280;2026;51.002;13.668;2023-03-18T14:32:57;98708.78;;;16.41;43.13
4024;BME280;2026;51.002;13.668;2023-03-18T14:38:04;98707.81;;;16.68;42.29
4024;BME280;2026;51.002;13.668;2023-03-18T14:43:17;98705.16;;;16.58;43.25
4024;BME280;2026;51.002;13.668;2023-03-18T14:48:26;98706.69;;;16.43;42.71
4024;BME280;2026;51.002;13.668;2023-03-18T14:53:32;98703.50;;;16.46;43.34
4024;BME280;2026;51.002;13.668;2023-03-18T14:58:36;98703.91;;;16.12;44.00
4024;BME280;2026;51.002;13.668;2023-03-18T15:03:42;98700.97;;;16.08;44.30
4024;BME280;2026;51.002;13.668;2023-03-18T15:08:48;98703.84;;;16.07;44.85
4024;BME280;2026;51.002;13.668;2023-03-18T15:13:53;98708.66;;;16.15;45.27
4024;BME280;2026;51.002;13.668;2023-03-18T15:19:02;98711.25;;;16.05;45.35
4024;BME280;2026;51.002;13.668;2023-03-18T15:24:07;98705.16;;;15.99;45.62
4024;BME280;2026;51.002;13.668;2023-03-18T15:29:28;98697.47;;;15.98;46.06
4024;BME280;2026;51.002;13.668;2023-03-18T15:34:44;98717.63;;;15.71;46.26
4024;BME280;2026;51.002;13.668;2023-03-18T15:39:47;98715.72;;;15.61;46.31
4024;BME280;2026;51.002;13.668;2023-03-18T15:44:58;98720.44;;;15.59;46.81
4024;BME280;2026;51.002;13.668;2023-03-18T15:50:24;98726.28;;;15.61;47.04
4024;BME280;2026;51.002;13.668;2023-03-18T15:55:30;98729.00;;;15.39;47.74
4024;BME280;2026;51.002;13.668;2023-03-18T16:00:35;98728.91;;;15.29;48.00
4024;BME280;2026;51.002;13.668;2023-03-18T16:05:39;98730.81;;;15.06;48.19
4024;BME280;2026;51.002;13.668;2023-03-18T16:10:42;98744.56;;;15.08;48.42
4024;BME280;2026;51.002;13.668;2023-03-18T16:15:47;98740.56;;;15.05;47.96
4024;BME280;2026;51.002;13.668;2023-03-18T16:20:51;98740.09;;;15.08;47.80
4024;BME280;2026;51.002;13.668;2023-03-18T16:25:54;98747.28;;;15.18;47.31
4024;BME280;2026;51.002;13.668;2023-03-18T16:30:59;98749.28;;;14.78;47.67
4024;BME280;2026;51.002;13.668;2023-03-18T16:36:05;98754.84;;;14.60;49.86
4024;BME280;2026;51.002;13.668;2023-03-18T16:41:08;98761.03;;;14.48;46.89
4024;BME280;2026;51.002;13.668;2023-03-18T16:46:12;98761.47;;;14.23;47.24
4024;BME280;2026;51.002;13.668;2023-03-18T16:51:17;98776.09;;;13.96;47.01
4024;BME280;2026;51.002;13.668;2023-03-18T16:56:20;98778.03;;;13.84;47.07
4024;BME280;2026;51.002;13.668;2023-03-18T17:01:24;98774.81;;;13.47;48.15
4024;BME280;2026;51.002;13.668;2023-03-18T17:06:30;98781.13;;;13.46;49.33
4024;BME280;2026;51.002;13.668;2023-03-18T17:11:32;98785.84;;;13.15;49.77
4024;BME280;2026;51.002;13.668;2023-03-18T17:16:36;98797.56;;;13.07;50.19
4024;BME280;2026;51.002;13.668;2023-03-18T17:21:40;98786.41;;;12.76;51.28
4024;BME280;2026;51.002;13.668;2023-03-18T17:26:43;98793.72;;;12.62;50.08
4024;BME280;2026;51.002;13.668;2023-03-18T17:31:48;98804.72;;;12.59;50.62
4024;BME280;2026;51.002;13.668;2023-03-18T17:36:52;98805.97;;;12.45;51.37
4024;BME280;2026;51.002;13.668;2023-03-18T17:41:57;98806.69;;;12.16;52.33
4024;BME280;2026;51.002;13.668;2023-03-18T17:46:59;98817.41;;;12.03;53.31
4024;BME280;2026;51.002;13.668;2023-03-18T17:52:05;98815.22;;;11.88;53.88
4024;BME280;2026;51.002;13.668;2023-03-18T17:57:12;98820.00;;;11.91;53.88
4024;BME280;2026;51.002;13.668;2023-03-18T18:02:16;98831.03;;;11.69;54.07
4024;BME280;2026;51.002;13.668;2023-03-18T18:07:22;98834.59;;;11.44;55.05
4024;BME280;2026;51.002;13.668;2023-03-18T18:12:26;98828.38;;;11.38;54.02
4024;BME280;2026;51.002;13.668;2023-03-18T18:17:29;98830.41;;;11.24;54.10
4024;BME280;2026;51.002;13.668;2023-03-18T18:22:33;98820.88;;;10.93;54.98
4024;BME280;2026;51.002;13.668;2023-03-18T18:27:36;98823.28;;;10.94;55.87
4024;BME280;2026;51.002;13.668;2023-03-18T18:32:39;98824.59;;;10.85;56.08
4024;BME280;2026;51.002;13.668;2023-03-18T18:37:44;98825.47;;;10.79;56.46
4024;BME280;2026;51.002;13.668;2023-03-18T18:42:48;98829.91;;;10.34;58.83
4024;BME280;2026;51.002;13.668;2023-03-18T18:47:51;98828.22;;;9.96;59.96
4024;BME280;2026;51.002;13.668;2023-03-18T18:52:55;98822.88;;;10.09;59.73
4024;BME280;2026;51.002;13.668;2023-03-18T18:57:58;98816.78;;;10.15;59.15
4024;BME280;2026;51.002;13.668;2023-03-18T19:03:01;98822.13;;;10.02;60.93
4024;BME280;2026;51.002;13.668;2023-03-18T19:08:13;98814.56;;;9.87;60.65
4024;BME280;2026;51.002;13.668;2023-03-18T19:13:21;98809.47;;;9.67;61.04
4024;BME280;2026;51.002;13.668;2023-03-18T19:18:28;98809.34;;;9.48;60.98
4024;BME280;2026;51.002;13.668;2023-03-18T19:23:35;98815.19;;;9.57;62.66
4024;BME280;2026;51.002;13.668;2023-03-18T19:28:39;98815.19;;;9.50;63.57
4024;BME280;2026;51.002;13.668;2023-03-18T19:34:07;98830.50;;;9.53;63.54
4024;BME280;2026;51.002;13.668;2023-03-18T19:39:19;98835.19;;;9.37;64.28
4024;BME280;2026;51.002;13.668;2023-03-18T19:44:23;98833.25;;;9.19;65.05
4024;BME280;2026;51.002;13.668;2023-03-18T19:49:28;98829.28;;;9.03;63.63
4024;BME280;2026;51.002;13.668;2023-03-18T19:54:35;98833.69;;;9.09;64.83
4024;BME280;2026;51.002;13.668;2023-03-18T19:59:38;98834.31;;;9.05;64.34
4024;BME280;2026;51.002;13.668;2023-03-18T20:04:41;98840.03;;;8.61;66.08
4024;BME280;2026;51.002;13.668;2023-03-18T20:09:46;98836.22;;;8.64;65.18
4024;BME280;2026;51.002;13.668;2023-03-18T20:14:49;98829.38;;;8.63;65.38
4024;BME280;2026;51.002;13.668;2023-03-18T20:19:53;98833.22;;;8.67;64.81
4024;BME280;2026;51.002;13.668;2023-03-18T20:24:58;98826.78;;;8.63;65.59
4024;BME280;2026;51.002;13.668;2023-03-18T20:30:04;98830.59;;;8.67;65.50
4024;BME280;2026;51.002;13.668;2023-03-18T20:35:11;98838.84;;;8.57;66.36
4024;BME280;2026;51.002;13.668;2023-03-18T20:40:19;98845.69;;;8.58;66.17
4024;BME280;2026;51.002;13.668;2023-03-18T20:45:23;98835.88;;;8.33;68.13
4024;BME280;2026;51.002;13.668;2023-03-18T20:50:27;98836.66;;;8.40;67.68
4024;BME280;2026;51.002;13.668;2023-03-18T20:55:32;98822.19;;;8.38;68.23
4024;BME280;2026;51.002;13.668;2023-03-18T21:00:36;98816.75;;;8.46;64.61
4024;BME280;2026;51.002;13.668;2023-03-18T21:05:39;98823.53;;;8.67;62.79
4024;BME280;2026;51.002;13.668;2023-03-18T21:10:44;98822.34;;;8.57;63.50
4024;BME280;2026;51.002;13.668;2023-03-18T21:15:47;98831.22;;;8.42;64.89
4024;BME280;2026;51.002;13.668;2023-03-18T21:20:50;98837.06;;;8.44;65.30
4024;BME280;2026;51.002;13.668;2023-03-18T21:25:55;98843.31;;;8.43;66.62
4024;BME280;2026;51.002;13.668;2023-03-18T21:31:00;98834.44;;;8.17;68.34
4024;BME280;2026;51.002;13.668;2023-03-18T21:36:04;98824.22;;;8.22;69.12
4024;BME280;2026;51.002;13.668;2023-03-18T21:41:16;98831.03;;;8.10;69.25
4024;BME280;2026;51.002;13.668;2023-03-18T21:46:21;98833.44;;;8.11;69.27
4024;BME280;2026;51.002;13.668;2023-03-18T21:51:27;98825.19;;;7.94;70.19
4024;BME280;2026;51.002;13.668;2023-03-18T21:56:41;98822.81;;;8.20;66.78
4024;BME280;2026;51.002;13.668;2023-03-18T22:01:44;98822.78;;;8.26;66.29
4024;BME280;2026;51.002;13.668;2023-03-18T22:06:47;98829.22;;;8.17;69.01
4024;BME280;2026;51.002;13.668;2023-03-18T22:11:52;98818.59;;;8.05;69.49
4024;BME280;2026;51.002;13.668;2023-03-18T22:16:55;98835.03;;;7.99;70.61
4024;BME280;2026;51.002;13.668;2023-03-18T22:21:58;98832.84;;;8.16;70.18
4024;BME280;2026;51.002;13.668;2023-03-18T22:27:02;98835.66;;;8.14;71.04
4024;BME280;2026;51.002;13.668;2023-03-18T22:32:07;98825.19;;;7.94;70.65
4024;BME280;2026;51.002;13.668;2023-03-18T22:37:13;98823.22;;;8.03;67.15
4024;BME280;2026;51.002;13.668;2023-03-18T22:42:23;98827.22;;;8.06;65.97
4024;BME280;2026;51.002;13.668;2023-03-18T22:47:27;98832.47;;;8.06;67.32
4024;BME280;2026;51.002;13.668;2023-03-18T22:52:30;98821.81;;;8.14;68.21
4024;BME280;2026;51.002;13.668;2023-03-18T22:57:34;98824.03;;;8.10;69.80
4024;BME280;2026;51.002;13.668;2023-03-18T23:02:37;98834.03;;;7.93;71.08
4024;BME280;2026;51.002;13.668;2023-03-18T23:07:40;98834.00;;;7.80;71.11
4024;BME280;2026;51.002;13.668;2023-03-18T23:12:45;98821.59;;;7.89;71.47
4024;BME280;2026;51.002;13.668;2023-03-18T23:17:48;98822.00;;;7.85;72.42
4024;BME280;2026;51.002;13.668;2023-03-18T23:22:51;98824.38;;;7.87;72.09
4024;BME280;2026;51.002;13.668;2023-03-18T23:27:56;98825.41;;;7.72;73.72
4024;BME280;2026;51.002;13.668;2023-03-18T23:32:59;98821.97;;;7.79;73.48
4024;BME280;2026;51.002;13.668;2023-03-18T23:38:03;98827.59;;;7.76;73.28
4024;BME280;2026;51.002;13.668;2023-03-18T23:43:07;98831.94;;;7.41;75.13
4024;BME280;2026;51.002;13.668;2023-03-18T23:48:10;98829.13;;;7.36;75.99
4024;BME280;2026;51.002;13.668;2023-03-18T23:53:13;98823.31;;;7.34;75.85
4024;BME280;2026;51.002;13.668;2023-03-18T23:58:18;98825.91;;;7.41;75.48
